createdAt,value
2023-08-04T00:22:46.996Z,3
2023-08-04T00:51:29.553Z,1
2023-08-04T01:20:23.562Z,1
2023-08-04T01:49:13.932Z,1
2023-08-04T02:18:10.266Z,1
2023-08-04T02:47:05.554Z,1
2023-08-04T03:15:57.888Z,1
2023-08-04T03:44:59.095Z,1
2023-08-04T04:13:44.554Z,1
2023-08-04T04:42:39.631Z,4
2023-08-04T05:11:35.197Z,2
2023-08-04T05:40:26.341Z,3
2023-08-04T06:09:16.857Z,1
2023-08-04T06:38:04.897Z,3
2023-08-04T07:06:43.208Z,1
2023-08-04T07:35:36.812Z,3
2023-08-04T08:04:18.248Z,2
2023-08-04T08:33:12.112Z,1
2023-08-04T09:02:10.040Z,1
2023-08-04T09:30:48.359Z,1
2023-08-04T09:59:38.000Z,1
2023-08-04T10:28:26.367Z,1
2023-08-04T10:56:46.770Z,1
2023-08-04T11:25:16.862Z,3
2023-08-04T11:53:48.589Z,3
2023-08-04T12:22:31.077Z,2
2023-08-04T12:51:21.209Z,2
2023-08-04T13:20:04.026Z,3
2023-08-04T13:48:34.179Z,4
2023-08-04T14:17:11.001Z,5
2023-08-04T14:45:47.400Z,6
2023-08-04T15:14:36.391Z,4
2023-08-04T15:43:05.802Z,6
2023-08-04T16:11:47.319Z,10
2023-08-04T16:40:38.536Z,7
2023-08-04T17:09:11.973Z,6
2023-08-04T17:37:46.515Z,6
2023-08-04T18:06:21.945Z,7
2023-08-04T18:34:44.876Z,7
2023-08-04T19:03:13.375Z,8
2023-08-04T19:31:37.499Z,8
2023-08-04T20:00:23.342Z,7
2023-08-04T20:28:34.874Z,7
2023-08-04T20:57:03.635Z,8
2023-08-04T21:25:32.688Z,8
2023-08-04T21:54:07.764Z,9
2023-08-04T22:22:32.303Z,13
2023-08-04T22:51:09.983Z,10
2023-08-04T23:19:40.616Z,12
2023-08-04T23:48:34.018Z,8
